sensor_id;sensor_type;location;lat;lon;timestamp;pressure;altitude;pressure_sealevel;temperature;humidity
72587;BME280;60621;49.576;11.024;2023-03-31T00:00:13;97808.31;;;10.51;79.40
72587;BME280;60621;49.576;11.024;2023-03-31T00:01:15;97817.69;;;10.48;79.83
72587;BME280;60621;49.576;11.024;2023-03-31T00:02:16;97815.09;;;10.52;79.90
72587;BME280;60621;49.576;11.024;2023-03-31T00:03:22;97804.22;;;10.57;79.61
72587;BME280;60621;49.576;11.024;2023-03-31T00:04:25;97794.81;;;10.60;79.60
72587;BME280;60621;49.576;11.024;2023-03-31T00:05:27;97791.31;;;10.48;79.53
72587;BME280;60621;49.576;11.024;2023-03-31T00:06:35;97789.06;;;10.47;79.52
72587;BME280;60621;49.576;11.024;2023-03-31T00:07:38;97784.13;;;10.42;80.07
72587;BME280;60621;49.576;11.024;2023-03-31T00:08:40;97778.06;;;10.38;80.54
72587;BME280;60621;49.576;11.024;2023-03-31T00:09:41;97769.78;;;10.36;80.54
72587;BME280;60621;49.576;11.024;2023-03-31T00:10:46;97765.59;;;10.35;80.70
72587;BME280;60621;49.576;11.024;2023-03-31T00:11:49;97760.31;;;10.31;81.34
72587;BME280;60621;49.576;11.024;2023-03-31T00:12:51;97764.53;;;10.43;80.74
72587;BME280;60621;49.576;11.024;2023-03-31T00:13:52;97760.47;;;10.52;79.83
72587;BME280;60621;49.576;11.024;2023-03-31T00:14:54;97762.38;;;10.56;79.91
72587;BME280;60621;49.576;11.024;2023-03-31T00:16:04;97759.78;;;10.59;79.56
72587;BME280;60621;49.576;11.024;2023-03-31T00:17:08;97757.09;;;10.56;79.88
72587;BME280;60621;49.576;11.024;2023-03-31T00:18:10;97755.16;;;10.45;79.87
72587;BME280;60621;49.576;11.024;2023-03-31T00:19:12;97752.53;;;10.45;80.33
72587;BME280;60621;49.576;11.024;2023-03-31T00:20:19;97756.69;;;10.54;80.17
72587;BME280;60621;49.576;11.024;2023-03-31T00:21:22;97756.34;;;10.55;80.11
72587;BME280;60621;49.576;11.024;2023-03-31T00:22:34;97748.44;;;10.55;80.47
72587;BME280;60621;49.576;11.024;2023-03-31T00:23:39;97747.31;;;10.56;80.45
72587;BME280;60621;49.576;11.024;2023-03-31T00:24:41;97745.44;;;10.57;80.45
72587;BME280;60621;49.576;11.024;2023-03-31T00:25:43;97738.59;;;10.45;80.91
72587;BME280;60621;49.576;11.024;2023-03-31T00:26:44;97738.94;;;10.43;80.69
72587;BME280;60621;49.576;11.024;2023-03-31T00:27:46;97734.41;;;10.44;81.13
72587;BME280;60621;49.576;11.024;2023-03-31T00:28:51;97723.16;;;10.50;80.86
72587;BME280;60621;49.576;11.024;2023-03-31T00:29:53;97723.53;;;10.49;80.90
72587;BME280;60621;49.576;11.024;2023-03-31T00:30:59;97728.41;;;10.47;81.17
72587;BME280;60621;49.576;11.024;2023-03-31T00:32:01;97728.03;;;10.45;81.31
72587;BME280;60621;49.576;11.024;2023-03-31T00:33:02;97716.00;;;10.47;81.90
72587;BME280;60621;49.576;11.024;2023-03-31T00:34:05;97716.00;;;10.51;81.65
72587;BME280;60621;49.576;11.024;2023-03-31T00:35:07;97723.94;;;10.51;81.44
72587;BME280;60621;49.576;11.024;2023-03-31T00:36:09;97716.78;;;10.51;81.44
72587;BME280;60621;49.576;11.024;2023-03-31T00:37:10;97711.09;;;10.46;81.11
72587;BME280;60621;49.576;11.024;2023-03-31T00:38:16;97714.78;;;10.38;81.30
72587;BME280;60621;49.576;11.024;2023-03-31T00:39:18;97707.59;;;10.31;81.56
72587;BME280;60621;49.576;11.024;2023-03-31T00:40:19;97705.75;;;10.35;81.43
72587;BME280;60621;49.576;11.024;2023-03-31T00:41:21;97709.16;;;10.39;81.10
72587;BME280;60621;49.576;11.024;2023-03-31T00:42:22;97703.56;;;10.44;80.19
72587;BME280;60621;49.576;11.024;2023-03-31T00:43:33;97706.19;;;10.44;80.34
72587;BME280;60621;49.576;11.024;2023-03-31T00:44:38;97704.66;;;10.43;80.45
72587;BME280;60621;49.576;11.024;2023-03-31T00:46:22;97697.91;;;10.46;80.41
72587;BME280;60621;49.576;11.024;2023-03-31T00:47:28;97702.44;;;10.52;80.14
72587;BME280;60621;49.576;11.024;2023-03-31T00:48:30;97703.22;;;10.57;79.60
72587;BME280;60621;49.576;11.024;2023-03-31T00:49:42;97697.59;;;10.58;79.51
72587;BME280;60621;49.576;11.024;2023-03-31T00:50:48;97699.44;;;10.50;79.05
72587;BME280;60621;49.576;11.024;2023-03-31T00:51:54;97698.28;;;10.48;79.68
72587;BME280;60621;49.576;11.024;2023-03-31T00:53:06;97698.28;;;10.48;79.41
72587;BME280;60621;49.576;11.024;2023-03-31T00:54:09;97697.16;;;10.45;79.32
72587;BME280;60621;49.576;11.024;2023-03-31T00:55:17;97693.75;;;10.45;79.77
72587;BME280;60621;49.576;11.024;2023-03-31T00:56:23;97703.97;;;10.50;79.42
72587;BME280;60621;49.576;11.024;2023-03-31T00:57:26;97689.25;;;10.49;78.96
72587;BME280;60621;49.576;11.024;2023-03-31T00:58:29;97691.47;;;10.43;78.82
72587;BME280;60621;49.576;11.024;2023-03-31T00:59:46;97685.09;;;10.44;79.28
72587;BME280;60621;49.576;11.024;2023-03-31T01:00:50;97689.22;;;10.42;79.14
72587;BME280;60621;49.576;11.024;2023-03-31T01:01:55;97682.47;;;10.44;79.57
72587;BME280;60621;49.576;11.024;2023-03-31T01:03:05;97685.81;;;10.41;79.23
72587;BME280;60621;49.576;11.024;2023-03-31T01:04:12;97684.97;;;10.30;79.18
72587;BME280;60621;49.576;11.024;2023-03-31T01:05:14;97683.09;;;10.27;79.82
72587;BME280;60621;49.576;11.024;2023-03-31T01:06:16;97678.59;;;10.31;79.09
72587;BME280;60621;49.576;11.024;2023-03-31T01:08:32;97674.84;;;10.32;79.29
72587;BME280;60621;49.576;11.024;2023-03-31T01:09:37;97673.69;;;10.30;79.32
72587;BME280;60621;49.576;11.024;2023-03-31T01:10:51;97667.31;;;10.34;79.53
72587;BME280;60621;49.576;11.024;2023-03-31T01:11:53;97665.41;;;10.35;79.80
72587;BME280;60621;49.576;11.024;2023-03-31T01:12:56;97657.53;;;10.38;79.27
72587;BME280;60621;49.576;11.024;2023-03-31T01:13:57;97664.66;;;10.31;79.43
72587;BME280;60621;49.576;11.024;2023-03-31T01:14:59;97662.59;;;10.10;79.70
72587;BME280;60621;49.576;11.024;2023-03-31T01:16:02;97663.66;;;9.98;80.09
72587;BME280;60621;49.576;11.024;2023-03-31T01:17:04;97658.41;;;10.05;80.54
72587;BME280;60621;49.576;11.024;2023-03-31T01:18:05;97653.97;;;10.13;79.72
72587;BME280;60621;49.576;11.024;2023-03-31T01:19:16;97652.50;;;10.19;79.67
72587;BME280;60621;49.576;11.024;2023-03-31T01:27:52;97636.81;;;10.37;78.26
72587;BME280;60621;49.576;11.024;2023-03-31T01:29:06;97632.34;;;10.41;78.17
72587;BME280;60621;49.576;11.024;2023-03-31T01:32:02;97636.44;;;10.38;78.22
72587;BME280;60621;49.576;11.024;2023-03-31T01:36:24;97642.38;;;10.24;78.67
72587;BME280;60621;49.576;11.024;2023-03-31T01:37:48;97631.38;;;10.12;79.11
72587;BME280;60621;49.576;11.024;2023-03-31T01:38:58;97621.53;;;10.05;79.50
72587;BME280;60621;49.576;11.024;2023-03-31T01:40:29;97622.34;;;10.13;78.62
72587;BME280;60621;49.576;11.024;2023-03-31T01:43:06;97618.63;;;10.21;79.17
72587;BME280;60621;49.576;11.024;2023-03-31T01:45:39;97617.09;;;10.20;79.25
72587;BME280;60621;49.576;11.024;2023-03-31T01:47:58;97609.59;;;10.22;79.13
72587;BME280;60621;49.576;11.024;2023-03-31T01:50:56;97604.28;;;10.15;79.22
72587;BME280;60621;49.576;11.024;2023-03-31T01:52:07;97598.28;;;10.18;79.17
72587;BME280;60621;49.576;11.024;2023-03-31T01:53:52;97606.91;;;10.11;79.34
72587;BME280;60621;49.576;11.024;2023-03-31T01:56:20;97596.72;;;10.10;79.18
72587;BME280;60621;49.576;11.024;2023-03-31T01:57:34;97595.97;;;10.09;79.02
72587;BME280;60621;49.576;11.024;2023-03-31T01:58:53;97599.00;;;10.15;78.66
72587;BME280;60621;49.576;11.024;2023-03-31T02:00:08;97590.75;;;10.20;78.05
72587;BME280;60621;49.576;11.024;2023-03-31T02:01:21;97590.06;;;10.27;78.12
72587;BME280;60621;49.576;11.024;2023-03-31T02:02:31;97592.66;;;10.23;78.12
72587;BME280;60621;49.576;11.024;2023-03-31T02:03:44;97586.22;;;10.20;78.51
72587;BME280;60621;49.576;11.024;2023-03-31T02:04:53;97581.00;;;10.24;77.98
72587;BME280;60621;49.576;11.024;2023-03-31T02:06:06;97586.28;;;10.24;78.07
72587;BME280;60621;49.576;11.024;2023-03-31T02:07:15;97588.56;;;10.25;78.14
72587;BME280;60621;49.576;11.024;2023-03-31T02:08:22;97576.53;;;10.32;77.35
72587;BME280;60621;49.576;11.024;2023-03-31T02:09:28;97577.66;;;10.34;77.14
72587;BME280;60621;49.576;11.024;2023-03-31T02:10:32;97583.69;;;10.35;77.11
72587;BME280;60621;49.576;11.024;2023-03-31T02:11:36;97577.31;;;10.32;77.10
72587;BME280;60621;49.576;11.024;2023-03-31T02:12:41;97577.28;;;10.29;77.46
72587;BME280;60621;49.576;11.024;2023-03-31T02:13:45;97578.78;;;10.26;77.88
72587;BME280;60621;49.576;11.024;2023-03-31T02:14:49;97573.50;;;10.30;77.82
72587;BME280;60621;49.576;11.024;2023-03-31T02:16:00;97575.78;;;10.35;77.53
72587;BME280;60621;49.576;11.024;2023-03-31T02:17:06;97567.13;;;10.31;77.32
72587;BME280;60621;49.576;11.024;2023-03-31T02:18:15;97571.66;;;10.34;77.50
72587;BME280;60621;49.576;11.024;2023-03-31T02:19:20;97569.25;;;10.14;77.69
72587;BME280;60621;49.576;11.024;2023-03-31T02:20:24;97563.22;;;10.10;78.27
72587;BME280;60621;49.576;11.024;2023-03-31T02:21:32;97563.25;;;10.14;78.34
72587;BME280;60621;49.576;11.024;2023-03-31T02:22:37;97569.66;;;10.16;77.76
72587;BME280;60621;49.576;11.024;2023-03-31T02:23:39;97562.91;;;10.22;77.66
72587;BME280;60621;49.576;11.024;2023-03-31T02:24:43;97569.28;;;10.18;77.81
72587;BME280;60621;49.576;11.024;2023-03-31T02:25:49;97559.53;;;10.22;78.15
72587;BME280;60621;49.576;11.024;2023-03-31T02:26:53;97560.66;;;10.21;77.76
72587;BME280;60621;49.576;11.024;2023-03-31T02:27:59;97557.63;;;10.19;77.57
72587;BME280;60621;49.576;11.024;2023-03-31T02:29:02;97561.44;;;10.25;77.36
72587;BME280;60621;49.576;11.024;2023-03-31T02:30:05;97556.56;;;10.27;77.33
72587;BME280;60621;49.576;11.024;2023-03-31T02:31:28;97558.03;;;10.24;77.51
72587;BME280;60621;49.576;11.024;2023-03-31T02:32:38;97559.88;;;10.20;77.54
72587;BME280;60621;49.576;11.024;2023-03-31T02:33:40;97558.41;;;10.23;77.65
72587;BME280;60621;49.576;11.024;2023-03-31T02:34:42;97553.53;;;10.25;77.70
72587;BME280;60621;49.576;11.024;2023-03-31T02:35:43;97562.59;;;10.28;77.63
72587;BME280;60621;49.576;11.024;2023-03-31T02:36:45;97551.66;;;10.29;77.27
72587;BME280;60621;49.576;11.024;2023-03-31T02:37:47;97549.41;;;10.28;77.21
72587;BME280;60621;49.576;11.024;2023-03-31T02:38:58;97556.16;;;10.25;77.15
72587;BME280;60621;49.576;11.024;2023-03-31T02:40:05;97549.72;;;10.22;77.52
72587;BME280;60621;49.576;11.024;2023-03-31T02:41:10;97546.69;;;10.20;77.61
72587;BME280;60621;49.576;11.024;2023-03-31T02:42:12;97536.19;;;10.24;77.43
72587;BME280;60621;49.576;11.024;2023-03-31T02:43:14;97535.84;;;10.25;77.21
72587;BME280;60621;49.576;11.024;2023-03-31T02:44:16;97537.34;;;10.30;76.69
72587;BME280;60621;49.576;11.024;2023-03-31T02:46:44;97537.31;;;10.23;77.10
72587;BME280;60621;49.576;11.024;2023-03-31T02:47:47;97537.28;;;10.19;76.92
72587;BME280;60621;49.576;11.024;2023-03-31T02:48:51;97543.75;;;10.25;76.69
72587;BME280;60621;49.576;11.024;2023-03-31T02:49:56;97536.94;;;10.21;76.83
72587;BME280;60621;49.576;11.024;2023-03-31T02:55:14;97522.31;;;10.31;76.43
72587;BME280;60621;49.576;11.024;2023-03-31T02:56:29;97518.53;;;10.28;76.34
72587;BME280;60621;49.576;11.024;2023-03-31T02:57:56;97522.66;;;10.29;76.35
72587;BME280;60621;49.576;11.024;2023-03-31T02:59:22;97523.06;;;10.31;76.24
72587;BME280;60621;49.576;11.024;2023-03-31T03:02:02;97518.16;;;10.30;76.62
72587;BME280;60621;49.576;11.024;2023-03-31T03:03:49;97509.03;;;10.20;76.44
72587;BME280;60621;49.576;11.024;2023-03-31T03:05:11;97508.28;;;10.16;76.96
72587;BME280;60621;49.576;11.024;2023-03-31T03:10:34;97505.66;;;10.19;76.26
72587;BME280;60621;49.576;11.024;2023-03-31T03:11:54;97508.69;;;10.21;76.47
72587;BME280;60621;49.576;11.024;2023-03-31T03:15:39;97495.19;;;10.27;75.98
72587;BME280;60621;49.576;11.024;2023-03-31T03:17:43;97495.94;;;10.27;76.19
72587;BME280;60621;49.576;11.024;2023-03-31T03:18:19;97495.09;;;10.12;76.64
72587;BME280;60621;49.576;11.024;2023-03-31T03:19:21;97483.41;;;10.10;76.54
72587;BME280;60621;49.576;11.024;2023-03-31T03:20:23;97477.41;;;10.13;76.69
72587;BME280;60621;49.576;11.024;2023-03-31T03:21:26;97481.16;;;10.15;76.81
72587;BME280;60621;49.576;11.024;2023-03-31T03:22:27;97476.66;;;10.19;76.81
72587;BME280;60621;49.576;11.024;2023-03-31T03:23:29;97484.97;;;10.21;76.84
72587;BME280;60621;49.576;11.024;2023-03-31T03:24:31;97476.66;;;10.19;77.02
72587;BME280;60621;49.576;11.024;2023-03-31T03:25:34;97481.56;;;10.17;76.76
72587;BME280;60621;49.576;11.024;2023-03-31T03:26:36;97478.53;;;10.12;77.13
72587;BME280;60621;49.576;11.024;2023-03-31T03:27:38;97472.13;;;10.13;77.29
72587;BME280;60621;49.576;11.024;2023-03-31T03:28:39;97471.75;;;10.14;77.47
72587;BME280;60621;49.576;11.024;2023-03-31T03:29:41;97473.63;;;10.14;77.39
72587;BME280;60621;49.576;11.024;2023-03-31T03:30:43;97471.72;;;10.11;77.48
72587;BME280;60621;49.576;11.024;2023-03-31T03:31:44;97462.31;;;10.10;77.38
72587;BME280;60621;49.576;11.024;2023-03-31T03:32:47;97467.59;;;10.10;77.32
72587;BME280;60621;49.576;11.024;2023-03-31T03:33:49;97461.22;;;10.18;77.05
72587;BME280;60621;49.576;11.024;2023-03-31T03:34:51;97463.88;;;10.21;76.79
72587;BME280;60621;49.576;11.024;2023-03-31T03:35:52;97466.88;;;10.20;76.51
72587;BME280;60621;49.576;11.024;2023-03-31T03:36:54;97464.63;;;10.18;76.75
72587;BME280;60621;49.576;11.024;2023-03-31T03:37:55;97458.94;;;10.13;76.88
72587;BME280;60621;49.576;11.024;2023-03-31T03:38:57;97460.84;;;10.19;76.59
72587;BME280;60621;49.576;11.024;2023-03-31T03:39:58;97459.38;;;10.22;76.34
72587;BME280;60621;49.576;11.024;2023-03-31T03:41:00;97453.69;;;10.20;76.16
72587;BME280;60621;49.576;11.024;2023-03-31T03:42:02;97447.66;;;10.16;76.35
72587;BME280;60621;49.576;11.024;2023-03-31T03:43:03;97450.31;;;10.19;76.31
72587;BME280;60621;49.576;11.024;2023-03-31T03:44:05;97449.53;;;10.15;76.23
72587;BME280;60621;49.576;11.024;2023-03-31T03:45:06;97446.19;;;10.22;76.34
72587;BME280;60621;49.576;11.024;2023-03-31T03:46:08;97438.28;;;10.22;76.19
72587;BME280;60621;49.576;11.024;2023-03-31T03:47:10;97437.13;;;10.19;76.09
72587;BME280;60621;49.576;11.024;2023-03-31T03:48:11;97435.66;;;10.22;76.30
72587;BME280;60621;49.576;11.024;2023-03-31T03:49:13;97429.25;;;10.23;76.16
72587;BME280;60621;49.576;11.024;2023-03-31T03:50:14;97428.50;;;10.22;75.46
72587;BME280;60621;49.576;11.024;2023-03-31T03:51:16;97429.22;;;10.19;75.48
72587;BME280;60621;49.576;11.024;2023-03-31T03:52:18;97433.38;;;10.20;75.47
72587;BME280;60621;49.576;11.024;2023-03-31T03:53:21;97426.59;;;10.19;75.96
72587;BME280;60621;49.576;11.024;2023-03-31T03:54:22;97431.50;;;10.21;75.88
72587;BME280;60621;49.576;11.024;2023-03-31T03:55:24;97422.81;;;10.20;75.52
72587;BME280;60621;49.576;11.024;2023-03-31T03:56:26;97424.34;;;10.21;75.77
72587;BME280;60621;49.576;11.024;2023-03-31T03:57:27;97413.81;;;10.21;75.44
72587;BME280;60621;49.576;11.024;2023-03-31T03:58:29;97417.19;;;10.18;75.63
72587;BME280;60621;49.576;11.024;2023-03-31T03:59:31;97414.91;;;10.13;75.81
72587;BME280;60621;49.576;11.024;2023-03-31T04:00:32;97416.03;;;10.16;75.92
72587;BME280;60621;49.576;11.024;2023-03-31T04:01:34;97413.06;;;10.21;75.66
72587;BME280;60621;49.576;11.024;2023-03-31T04:02:37;97408.16;;;10.23;75.39
72587;BME280;60621;49.576;11.024;2023-03-31T04:03:39;97414.91;;;10.20;75.46
72587;BME280;60621;49.576;11.024;2023-03-31T04:04:40;97417.19;;;10.22;75.63
72587;BME280;60621;49.576;11.024;2023-03-31T04:05:42;97412.28;;;10.20;75.79
72587;BME280;60621;49.576;11.024;2023-03-31T04:06:43;97406.63;;;10.18;76.15
72587;BME280;60621;49.576;11.024;2023-03-31T04:07:44;97415.63;;;10.10;75.66
72587;BME280;60621;49.576;11.024;2023-03-31T04:08:46;97422.44;;;10.08;76.46
72587;BME280;60621;49.576;11.024;2023-03-31T04:09:47;97414.16;;;10.13;76.19
72587;BME280;60621;49.576;11.024;2023-03-31T04:10:50;97408.88;;;10.13;76.18
72587;BME280;60621;49.576;11.024;2023-03-31T04:11:51;97403.59;;;10.09;76.44
72587;BME280;60621;49.576;11.024;2023-03-31T04:12:52;97414.16;;;10.13;76.49
72587;BME280;60621;49.576;11.024;2023-03-31T04:13:54;97395.72;;;10.16;76.38
72587;BME280;60621;49.576;11.024;2023-03-31T04:14:56;97396.06;;;10.15;76.54
72587;BME280;60621;49.576;11.024;2023-03-31T04:15:57;97399.09;;;10.20;76.43
72587;BME280;60621;49.576;11.024;2023-03-31T04:16:58;97393.88;;;10.24;76.70
72587;BME280;60621;49.576;11.024;2023-03-31T04:18:00;97398.38;;;10.23;76.11
72587;BME280;60621;49.576;11.024;2023-03-31T04:19:01;97384.06;;;10.17;76.32
72587;BME280;60621;49.576;11.024;2023-03-31T04:20:07;97385.91;;;10.10;76.88
72587;BME280;60621;49.576;11.024;2023-03-31T04:21:14;97388.53;;;10.10;76.81
72587;BME280;60621;49.576;11.024;2023-03-31T04:22:23;97391.94;;;10.07;77.42
72587;BME280;60621;49.576;11.024;2023-03-31T04:23:33;97387.81;;;10.13;77.34
72587;BME280;60621;49.576;11.024;2023-03-31T04:24:35;97385.56;;;10.11;76.77
72587;BME280;60621;49.576;11.024;2023-03-31T04:25:39;97386.31;;;10.12;76.95
72587;BME280;60621;49.576;11.024;2023-03-31T04:26:46;97386.28;;;10.15;76.73
72587;BME280;60621;49.576;11.024;2023-03-31T04:27:51;97387.44;;;10.18;76.84
72587;BME280;60621;49.576;11.024;2023-03-31T04:28:59;97381.78;;;10.19;76.69
72587;BME280;60621;49.576;11.024;2023-03-31T04:30:00;97376.88;;;10.14;76.96
72587;BME280;60621;49.576;11.024;2023-03-31T04:31:03;97374.63;;;10.13;77.17
72587;BME280;60621;49.576;11.024;2023-03-31T04:32:06;97380.28;;;10.11;76.96
72587;BME280;60621;49.576;11.024;2023-03-31T04:33:08;97381.38;;;10.10;77.33
72587;BME280;60621;49.576;11.024;2023-03-31T04:34:11;97379.09;;;10.01;77.74
72587;BME280;60621;49.576;11.024;2023-03-31T04:35:14;97371.97;;;10.02;78.17
72587;BME280;60621;49.576;11.024;2023-03-31T04:36:15;97360.31;;;10.03;78.22
72587;BME280;60621;49.576;11.024;2023-03-31T04:37:19;97361.78;;;9.97;78.54
72587;BME280;60621;49.576;11.024;2023-03-31T04:38:23;97360.28;;;9.99;78.60
72587;BME280;60621;49.576;11.024;2023-03-31T04:39:24;97347.13;;;10.03;78.50
72587;BME280;60621;49.576;11.024;2023-03-31T04:40:31;97354.28;;;10.03;78.21
72587;BME280;60621;49.576;11.024;2023-03-31T04:41:32;97356.53;;;10.08;78.31
72587;BME280;60621;49.576;11.024;2023-03-31T04:42:34;97351.25;;;10.04;78.45
72587;BME280;60621;49.576;11.024;2023-03-31T04:43:36;97345.59;;;9.98;78.43
72587;BME280;60621;49.576;11.024;2023-03-31T04:44:37;97338.44;;;9.95;78.93
72587;BME280;60621;49.576;11.024;2023-03-31T04:45:39;97338.78;;;9.83;79.26
72587;BME280;60621;49.576;11.024;2023-03-31T04:46:40;97336.91;;;9.80;79.69
72587;BME280;60621;49.576;11.024;2023-03-31T04:47:42;97338.41;;;9.85;79.79
72587;BME280;60621;49.576;11.024;2023-03-31T04:48:44;97333.94;;;9.92;79.81
72587;BME280;60621;49.576;11.024;2023-03-31T04:49:45;97328.28;;;9.97;79.35
72587;BME280;60621;49.576;11.024;2023-03-31T04:50:47;97332.44;;;10.02;79.22
72587;BME280;60621;49.576;11.024;2023-03-31T04:51:49;97325.28;;;10.03;78.79
72587;BME280;60621;49.576;11.024;2023-03-31T04:52:50;97328.69;;;10.03;78.80
72587;BME280;60621;49.576;11.024;2023-03-31T04:53:52;97327.91;;;9.99;79.19
72587;BME280;60621;49.576;11.024;2023-03-31T04:54:53;97332.06;;;10.04;79.39
72587;BME280;60621;49.576;11.024;2023-03-31T04:55:54;97330.56;;;10.06;79.18
72587;BME280;60621;49.576;11.024;2023-03-31T04:56:56;97323.06;;;10.12;78.95
72587;BME280;60621;49.576;11.024;2023-03-31T04:57:57;97315.91;;;10.12;78.70
72587;BME280;60621;49.576;11.024;2023-03-31T04:58:59;97316.66;;;10.13;78.64
72587;BME280;60621;49.576;11.024;2023-03-31T05:00:01;97305.34;;;10.09;78.81
72587;BME280;60621;49.576;11.024;2023-03-31T05:01:02;97307.22;;;10.01;78.99
72587;BME280;60621;49.576;11.024;2023-03-31T05:02:06;97308.34;;;9.93;79.95
72587;BME280;60621;49.576;11.024;2023-03-31T05:03:08;97300.41;;;9.89;79.60
72587;BME280;60621;49.576;11.024;2023-03-31T05:04:10;97302.31;;;9.92;79.69
72587;BME280;60621;49.576;11.024;2023-03-31T05:05:11;97296.69;;;9.97;79.88
72587;BME280;60621;49.576;11.024;2023-03-31T05:06:14;97297.81;;;10.07;79.38
72587;BME280;60621;49.576;11.024;2023-03-31T05:07:19;97297.44;;;10.09;78.81
72587;BME280;60621;49.576;11.024;2023-03-31T05:08:20;97297.81;;;10.14;78.78
72587;BME280;60621;49.576;11.024;2023-03-31T05:09:22;97294.81;;;10.16;78.39
72587;BME280;60621;49.576;11.024;2023-03-31T05:10:24;97297.84;;;10.18;79.30
72587;BME280;60621;49.576;11.024;2023-03-31T05:11:25;97298.94;;;10.20;78.33
72587;BME280;60621;49.576;11.024;2023-03-31T05:12:27;97309.50;;;10.17;78.57
72587;BME280;60621;49.576;11.024;2023-03-31T05:13:29;97300.84;;;10.20;78.64
72587;BME280;60621;49.576;11.024;2023-03-31T05:14:30;97302.34;;;10.17;78.18
72587;BME280;60621;49.576;11.024;2023-03-31T05:15:32;97302.72;;;10.16;79.08
72587;BME280;60621;49.576;11.024;2023-03-31T05:16:35;97300.06;;;10.16;78.92
72587;BME280;60621;49.576;11.024;2023-03-31T05:17:37;97302.34;;;10.17;79.11
72587;BME280;60621;49.576;11.024;2023-03-31T05:18:39;97296.31;;;10.13;79.00
72587;BME280;60621;49.576;11.024;2023-03-31T05:19:41;97300.09;;;10.12;79.48
72587;BME280;60621;49.576;11.024;2023-03-31T05:20:42;97295.19;;;10.14;79.27
72587;BME280;60621;49.576;11.024;2023-03-31T05:21:44;97291.06;;;10.13;79.30
72587;BME280;60621;49.576;11.024;2023-03-31T05:22:46;97287.28;;;10.14;79.51
72587;BME280;60621;49.576;11.024;2023-03-31T05:23:47;97288.03;;;10.15;79.30
72587;BME280;60621;49.576;11.024;2023-03-31T05:24:49;97281.66;;;10.12;79.44
72587;BME280;60621;49.576;11.024;2023-03-31T05:25:50;97276.75;;;10.07;79.43
72587;BME280;60621;49.576;11.024;2023-03-31T05:26:52;97277.50;;;10.08;79.63
72587;BME280;60621;49.576;11.024;2023-03-31T05:27:53;97272.59;;;10.10;79.86
72587;BME280;60621;49.576;11.024;2023-03-31T05:28:56;97267.34;;;10.13;79.28
72587;BME280;60621;49.576;11.024;2023-03-31T05:29:58;97262.06;;;10.13;79.66
72587;BME280;60621;49.576;11.024;2023-03-31T05:31:01;97254.53;;;10.15;79.51
72587;BME280;60621;49.576;11.024;2023-03-31T05:32:03;97250.00;;;10.19;79.36
72587;BME280;60621;49.576;11.024;2023-03-31T05:33:05;97254.16;;;10.20;79.36
72587;BME280;60621;49.576;11.024;2023-03-31T05:34:06;97244.75;;;10.12;79.59
72587;BME280;60621;49.576;11.024;2023-03-31T05:35:09;97242.09;;;9.94;79.99
72587;BME280;60621;49.576;11.024;2023-03-31T05:36:13;97239.44;;;9.91;81.10
72587;BME280;60621;49.576;11.024;2023-03-31T05:37:15;97235.34;;;9.97;81.16
72587;BME280;60621;49.576;11.024;2023-03-31T05:38:16;97239.47;;;10.01;81.06
72587;BME280;60621;49.576;11.024;2023-03-31T05:39:18;97232.69;;;10.04;80.60
72587;BME280;60621;49.576;11.024;2023-03-31T05:40:19;97230.06;;;10.08;80.73
72587;BME280;60621;49.576;11.024;2023-03-31T05:41:21;97228.19;;;10.12;80.96
72587;BME280;60621;49.576;11.024;2023-03-31T05:42:22;97231.56;;;10.12;80.59
72587;BME280;60621;49.576;11.024;2023-03-31T05:43:24;97225.56;;;10.12;80.53
72587;BME280;60621;49.576;11.024;2023-03-31T05:44:26;97222.16;;;10.15;80.00
72587;BME280;60621;49.576;11.024;2023-03-31T05:45:27;97223.66;;;10.09;79.90
72587;BME280;60621;49.576;11.024;2023-03-31T05:46:29;97213.13;;;10.09;80.56
72587;BME280;60621;49.576;11.024;2023-03-31T05:47:31;97210.84;;;10.11;80.32
72587;BME280;60621;49.576;11.024;2023-03-31T05:48:33;97209.75;;;10.08;80.47
72587;BME280;60621;49.576;11.024;2023-03-31T05:49:35;97208.22;;;10.11;80.43
72587;BME280;60621;49.576;11.024;2023-03-31T05:50:36;97206.72;;;10.10;80.73
72587;BME280;60621;49.576;11.024;2023-03-31T05:51:38;97212.75;;;10.14;80.97
72587;BME280;60621;49.576;11.024;2023-03-31T05:52:39;97210.50;;;10.12;80.75
72587;BME280;60621;49.576;11.024;2023-03-31T05:53:41;97210.88;;;10.18;80.52
72587;BME280;60621;49.576;11.024;2023-03-31T05:54:42;97213.50;;;10.21;80.33
72587;BME280;60621;49.576;11.024;2023-03-31T05:55:44;97225.19;;;10.24;80.76
72587;BME280;60621;49.576;11.024;2023-03-31T05:56:46;97217.69;;;10.26;80.18
72587;BME280;60621;49.576;11.024;2023-03-31T05:57:48;97208.25;;;10.25;79.83
72587;BME280;60621;49.576;11.024;2023-03-31T05:58:49;97216.94;;;10.25;80.22
72587;BME280;60621;49.576;11.024;2023-03-31T05:59:51;97208.22;;;10.21;79.99
72587;BME280;60621;49.576;11.024;2023-03-31T06:01:07;97197.69;;;10.21;80.06
72587;BME280;60621;49.576;11.024;2023-03-31T06:02:12;97197.69;;;10.25;80.13
72587;BME280;60621;49.576;11.024;2023-03-31T06:03:13;97199.59;;;10.24;79.96
72587;BME280;60621;49.576;11.024;2023-03-31T06:04:15;97199.97;;;10.27;79.92
72587;BME280;60621;49.576;11.024;2023-03-31T06:05:17;97199.19;;;10.30;79.75
72587;BME280;60621;49.576;11.024;2023-03-31T06:06:18;97195.06;;;10.32;79.49
72587;BME280;60621;49.576;11.024;2023-03-31T06:07:22;97194.31;;;10.32;79.37
72587;BME280;60621;49.576;11.024;2023-03-31T06:08:25;97205.22;;;10.30;79.28
72587;BME280;60621;49.576;11.024;2023-03-31T06:09:27;97193.19;;;10.29;79.29
72587;BME280;60621;49.576;11.024;2023-03-31T06:10:28;97199.94;;;10.23;79.42
72587;BME280;60621;49.576;11.024;2023-03-31T06:11:30;97204.50;;;10.26;79.54
72587;BME280;60621;49.576;11.024;2023-03-31T06:12:32;97209.38;;;10.31;79.44